Time;durP1;ratioP1;P1;durP2;ratioP2;P2;SDS_P1;SDS_P2;PMS_P1;PMS_P2;Temp;Humidity;BMP_temperature;BMP_pressure;BME280_temperature;BME280_humidity;BME280_pressure;Samples;Min_cycle;Max_cycle;Signal;HPM_P1;HPM_P2
2023/06/11 00:02:33;;;;;;;17.83;7.80;;;17.20;99.90;;;;;;5031525;28;20053;-79
2023/06/11 00:05:20;;;;;;;15.88;7.15;;;17.20;99.90;;;;;;5019156;28;20110;-80
2023/06/11 00:08:06;;;;;;;20.85;7.57;;;17.10;99.90;;;;;;5050035;28;20053;-80
2023/06/11 00:10:52;;;;;;;16.70;7.95;;;17.10;99.90;;;;;;5048765;28;20141;-80
2023/06/11 00:13:38;;;;;;;17.92;7.70;;;17.10;99.90;;;;;;5034128;28;20072;-81
2023/06/11 00:16:24;;;;;;;16.92;8.02;;;17.00;99.90;;;;;;5031713;28;20472;-80
2023/06/11 00:19:11;;;;;;;12.43;7.57;;;17.00;99.90;;;;;;5047968;28;20053;-79
2023/06/11 00:21:59;;;;;;;17.20;7.68;;;17.00;99.90;;;;;;5032187;28;20095;-80
2023/06/11 00:24:46;;;;;;;17.33;7.85;;;17.00;99.90;;;;;;5033841;28;20064;-80
2023/06/11 00:27:34;;;;;;;16.15;7.90;;;17.00;99.90;;;;;;5032402;28;20064;-79
2023/06/11 00:30:20;;;;;;;19.02;7.50;;;17.00;99.90;;;;;;5030761;28;20084;-82
2023/06/11 00:33:06;;;;;;;14.27;7.60;;;16.90;99.90;;;;;;5032513;28;20179;-80
2023/06/11 00:35:52;;;;;;;19.20;6.80;;;16.90;99.90;;;;;;5048122;28;20114;-81
2023/06/11 00:38:38;;;;;;;13.68;6.22;;;16.90;99.90;;;;;;5049091;28;20057;-80
2023/06/11 00:41:25;;;;;;;12.45;6.25;;;16.90;99.90;;;;;;5050044;28;20045;-80
2023/06/11 00:44:17;;;;;;;12.73;5.97;;;16.90;99.90;;;;;;5033515;28;20099;-81
2023/06/11 00:47:03;;;;;;;13.98;6.00;;;17.00;99.90;;;;;;5035354;28;20049;-79
2023/06/11 00:49:49;;;;;;;10.00;5.45;;;17.00;99.90;;;;;;5050177;28;20075;-80
2023/06/11 00:52:35;;;;;;;14.50;6.00;;;17.00;99.90;;;;;;5050312;28;20056;-79
2023/06/11 00:55:22;;;;;;;18.10;6.55;;;17.10;99.90;;;;;;5049193;28;20059;-79
2023/06/11 00:58:13;;;;;;;13.25;6.10;;;17.10;99.90;;;;;;5035879;28;20058;-80
2023/06/11 01:01:00;;;;;;;10.93;5.57;;;17.20;99.90;;;;;;5050679;28;20045;-80
2023/06/11 01:03:52;;;;;;;10.80;6.10;;;17.30;99.90;;;;;;5049516;28;20161;-80
2023/06/11 01:06:39;;;;;;;14.88;6.28;;;17.30;99.90;;;;;;5048383;28;20053;-80
2023/06/11 01:09:26;;;;;;;11.80;6.43;;;17.40;99.90;;;;;;5048622;28;20071;-80
2023/06/11 01:12:12;;;;;;;15.05;6.35;;;17.50;99.90;;;;;;5047983;28;20202;-80
2023/06/11 01:14:58;;;;;;;10.93;6.43;;;17.50;99.90;;;;;;5049247;28;20144;-80
2023/06/11 01:17:48;;;;;;;13.23;6.40;;;17.50;99.90;;;;;;5048591;28;20502;-80
2023/06/11 01:20:41;;;;;;;14.63;6.18;;;17.50;99.90;;;;;;5016547;28;20174;-80
2023/06/11 01:23:41;;;;;;;12.45;6.45;;;17.60;99.90;;;;;;5048078;28;20140;-80
2023/06/11 01:26:43;;;;;;;13.27;6.60;;;17.60;99.90;;;;;;5047967;28;20056;-79
2023/06/11 01:29:29;;;;;;;12.85;6.70;;;17.70;99.90;;;;;;5031873;28;20087;-79
2023/06/11 01:32:23;;;;;;;14.38;7.20;;;17.70;99.90;;;;;;5048873;28;20052;-80
2023/06/11 01:35:09;;;;;;;14.18;6.63;;;17.70;99.90;;;;;;5035476;28;20049;-81
2023/06/11 01:37:56;;;;;;;16.95;7.60;;;17.70;99.90;;;;;;5052122;28;20174;-80
2023/06/11 01:40:42;;;;;;;13.43;5.57;;;17.70;99.90;;;;;;5051768;28;20495;-80
2023/06/11 01:43:30;;;;;;;12.18;6.88;;;17.70;99.90;;;;;;5035257;28;20049;-80
2023/06/11 01:46:16;;;;;;;11.60;6.10;;;17.60;99.90;;;;;;5033703;28;20053;-80
2023/06/11 01:49:02;;;;;;;12.80;6.78;;;17.70;99.90;;;;;;5052676;28;20049;-80
2023/06/11 01:51:48;;;;;;;13.50;7.03;;;17.70;99.90;;;;;;5052080;28;20496;-80
2023/06/11 01:54:35;;;;;;;13.65;7.75;;;17.80;99.90;;;;;;5037385;28;20053;-79
2023/06/11 01:57:21;;;;;;;11.38;6.82;;;17.80;99.90;;;;;;5052306;28;20049;-80
2023/06/11 02:00:10;;;;;;;13.82;7.07;;;17.80;99.90;;;;;;5033702;28;20045;-80
2023/06/11 02:02:59;;;;;;;12.15;6.90;;;17.80;99.90;;;;;;5036511;28;20053;-79
2023/06/11 02:05:45;;;;;;;12.73;6.72;;;17.70;99.90;;;;;;5035145;28;20118;-81
2023/06/11 02:08:31;;;;;;;11.55;6.82;;;17.70;99.90;;;;;;5050827;28;20722;-79
2023/06/11 02:11:17;;;;;;;12.95;6.68;;;17.80;99.90;;;;;;5051973;28;20053;-79
2023/06/11 02:14:03;;;;;;;15.13;7.15;;;17.80;99.90;;;;;;5034111;28;20056;-81
2023/06/11 02:16:49;;;;;;;10.23;6.30;;;17.80;99.90;;;;;;5051812;28;20048;-81
2023/06/11 02:19:35;;;;;;;11.30;7.20;;;17.80;99.90;;;;;;5029741;28;20061;-79
2023/06/11 02:22:21;;;;;;;13.25;6.97;;;17.80;99.90;;;;;;5030675;28;20049;-80
2023/06/11 02:25:08;;;;;;;12.20;6.47;;;17.80;99.90;;;;;;5031468;28;20509;-81
2023/06/11 02:27:54;;;;;;;11.85;6.70;;;17.80;99.90;;;;;;5030485;28;20497;-80
2023/06/11 02:30:40;;;;;;;13.55;6.97;;;17.80;99.90;;;;;;5030639;28;20049;-82
2023/06/11 02:33:26;;;;;;;9.25;6.63;;;17.80;99.90;;;;;;5029237;28;20058;-81
2023/06/11 02:36:12;;;;;;;11.63;6.80;;;17.80;99.90;;;;;;5031193;28;20046;-80
2023/06/11 02:38:58;;;;;;;11.40;7.35;;;17.80;99.90;;;;;;5029954;28;20129;-80
2023/06/11 02:41:44;;;;;;;13.07;7.38;;;17.80;99.90;;;;;;5028801;28;20057;-80
2023/06/11 02:44:30;;;;;;;11.32;7.03;;;17.70;99.90;;;;;;5010766;28;20133;-81
2023/06/11 02:47:16;;;;;;;14.05;7.25;;;17.70;99.90;;;;;;5012313;28;20438;-80
2023/06/11 02:50:02;;;;;;;14.93;7.38;;;17.70;99.90;;;;;;5009086;28;20493;-80
2023/06/11 02:52:48;;;;;;;11.75;6.93;;;17.60;99.90;;;;;;5009953;28;20133;-81
2023/06/11 02:55:34;;;;;;;9.70;6.72;;;17.60;99.90;;;;;;5011608;28;20046;-82
2023/06/11 02:58:20;;;;;;;16.95;7.97;;;17.60;99.90;;;;;;5011252;28;20505;-81
2023/06/11 03:01:06;;;;;;;11.52;7.47;;;17.60;99.90;;;;;;5010336;28;20081;-79
2023/06/11 03:03:52;;;;;;;13.18;7.97;;;17.60;99.90;;;;;;5010303;28;20220;-80
2023/06/11 03:06:40;;;;;;;14.43;7.35;;;17.50;99.90;;;;;;5009939;28;20517;-79
2023/06/11 03:09:26;;;;;;;13.93;7.55;;;17.50;99.90;;;;;;5009884;28;20089;-80
2023/06/11 03:12:12;;;;;;;14.55;7.97;;;17.50;99.90;;;;;;5010119;28;20061;-81
2023/06/11 03:14:58;;;;;;;12.40;7.28;;;17.40;99.90;;;;;;5010496;28;20490;-79
2023/06/11 03:17:44;;;;;;;10.27;7.53;;;17.40;99.90;;;;;;5011906;28;20415;-79
2023/06/11 03:20:30;;;;;;;10.50;7.68;;;17.40;99.90;;;;;;5029929;28;20386;-79
2023/06/11 03:23:16;;;;;;;15.48;8.25;;;17.40;99.90;;;;;;5016194;28;20053;-79
2023/06/11 03:26:03;;;;;;;16.63;8.93;;;17.40;99.90;;;;;;5029984;28;20051;-80
2023/06/11 03:28:49;;;;;;;11.57;8.63;;;17.40;99.90;;;;;;5015775;28;20049;-79
2023/06/11 03:31:37;;;;;;;17.70;7.82;;;17.40;99.90;;;;;;5011960;28;20096;-80
2023/06/11 03:34:23;;;;;;;13.38;8.50;;;17.30;99.90;;;;;;5012670;28;20128;-79
2023/06/11 03:37:09;;;;;;;11.90;7.85;;;17.30;99.90;;;;;;5029893;28;20075;-80
2023/06/11 03:39:55;;;;;;;14.52;8.30;;;17.30;99.90;;;;;;5011952;28;20085;-81
2023/06/11 03:42:41;;;;;;;13.95;8.43;;;17.30;99.90;;;;;;5011775;28;20053;-80
2023/06/11 03:45:27;;;;;;;13.95;8.02;;;17.30;99.90;;;;;;5029827;28;20118;-80
2023/06/11 03:48:13;;;;;;;13.13;8.88;;;17.30;99.90;;;;;;5015537;28;20131;-80
2023/06/11 03:50:59;;;;;;;16.00;7.53;;;17.30;99.90;;;;;;5029520;28;20489;-80
2023/06/11 03:53:46;;;;;;;14.00;8.90;;;17.30;99.90;;;;;;5012748;28;20484;-80
2023/06/11 03:56:32;;;;;;;14.13;9.10;;;17.30;99.90;;;;;;5015785;28;20049;-80
2023/06/11 03:59:18;;;;;;;15.75;8.25;;;17.30;99.90;;;;;;5029474;28;20053;-79
2023/06/11 04:02:05;;;;;;;12.98;8.25;;;17.20;99.90;;;;;;5029404;28;20075;-80
2023/06/11 04:04:51;;;;;;;15.35;8.27;;;17.30;99.90;;;;;;5011340;28;20104;-80
2023/06/11 04:07:39;;;;;;;13.43;9.20;;;17.30;99.90;;;;;;5011984;28;20064;-79
2023/06/11 04:10:25;;;;;;;15.27;8.63;;;17.30;99.90;;;;;;5029989;28;20060;-79
2023/06/11 04:13:11;;;;;;;16.23;8.60;;;17.30;99.90;;;;;;5029797;28;20053;-78
2023/06/11 04:15:57;;;;;;;17.80;8.70;;;17.30;99.90;;;;;;5030277;28;20049;-80
2023/06/11 04:18:43;;;;;;;11.20;8.52;;;17.30;99.90;;;;;;5014549;28;20409;-80
2023/06/11 04:21:29;;;;;;;17.42;8.85;;;17.40;99.90;;;;;;5011560;28;20559;-80
2023/06/11 04:24:15;;;;;;;13.95;9.18;;;17.40;99.90;;;;;;5015550;28;20060;-79
2023/06/11 04:27:01;;;;;;;14.18;8.85;;;17.40;99.90;;;;;;5012077;28;20041;-79
2023/06/11 04:29:48;;;;;;;12.95;8.55;;;17.50;99.90;;;;;;5011592;28;20053;-79
2023/06/11 04:32:40;;;;;;;15.55;8.50;;;17.50;99.90;;;;;;5029796;28;20049;-79
2023/06/11 04:35:26;;;;;;;12.52;8.98;;;17.50;99.90;;;;;;5015593;28;20084;-79
2023/06/11 04:38:12;;;;;;;9.52;7.75;;;17.60;99.90;;;;;;4998840;28;20053;-79
2023/06/11 04:40:58;;;;;;;12.13;8.75;;;17.60;99.90;;;;;;5029487;28;20729;-80
2023/06/11 04:43:46;;;;;;;13.75;8.25;;;17.60;99.90;;;;;;5012245;28;20116;-80
2023/06/11 04:46:34;;;;;;;15.25;8.35;;;17.70;99.90;;;;;;5029645;28;20054;-81
2023/06/11 04:49:20;;;;;;;13.00;7.95;;;17.80;99.90;;;;;;5030494;28;20057;-81
2023/06/11 04:52:08;;;;;;;12.93;8.10;;;17.80;99.90;;;;;;5012055;28;20053;-81
2023/06/11 04:54:55;;;;;;;12.20;8.93;;;17.90;99.90;;;;;;5028888;28;20050;-81
2023/06/11 04:57:41;;;;;;;13.40;8.05;;;17.90;99.90;;;;;;5029552;28;20187;-81
2023/06/11 05:00:28;;;;;;;14.13;8.18;;;18.00;99.90;;;;;;5029387;28;20060;-82
2023/06/11 05:03:18;;;;;;;15.02;9.20;;;18.10;99.90;;;;;;5029616;28;20056;-79
2023/06/11 05:06:04;;;;;;;17.55;8.40;;;18.10;99.90;;;;;;5029973;28;20049;-81
2023/06/11 05:08:52;;;;;;;13.02;8.63;;;18.20;99.90;;;;;;5030331;28;20052;-82
2023/06/11 05:11:39;;;;;;;11.00;7.60;;;18.30;99.90;;;;;;5015716;28;20056;-81
2023/06/11 05:14:26;;;;;;;15.43;7.45;;;18.40;99.90;;;;;;5032085;28;20117;-81
2023/06/11 05:17:12;;;;;;;17.55;9.10;;;18.40;99.90;;;;;;5032875;28;20057;-80
2023/06/11 05:19:58;;;;;;;12.25;7.75;;;18.60;99.90;;;;;;5013407;28;20050;-81
2023/06/11 05:22:46;;;;;;;14.60;7.13;;;18.60;99.90;;;;;;5012406;28;20406;-83
2023/06/11 05:25:32;;;;;;;13.85;8.85;;;18.70;99.90;;;;;;5013123;28;20056;-81
2023/06/11 05:28:18;;;;;;;13.15;7.85;;;18.80;99.90;;;;;;5012959;28;20382;-81
2023/06/11 05:31:45;;;;;;;11.57;7.93;;;18.90;99.90;;;;;;5013658;28;20092;-80
2023/06/11 05:34:33;;;;;;;19.83;8.70;;;19.00;99.90;;;;;;5011357;28;20057;-80
2023/06/11 05:37:19;;;;;;;16.77;8.57;;;19.00;99.90;;;;;;5013455;28;20045;-81
2023/06/11 05:40:06;;;;;;;12.68;7.85;;;19.20;99.90;;;;;;5011546;28;20093;-81
2023/06/11 05:42:52;;;;;;;15.25;7.78;;;19.30;99.90;;;;;;5013119;28;20412;-80
2023/06/11 05:45:47;;;;;;;13.80;7.63;;;19.40;99.90;;;;;;5011328;28;20084;-82
2023/06/11 05:48:33;;;;;;;13.70;7.95;;;19.50;99.90;;;;;;4997293;28;20076;-81
2023/06/11 05:51:19;;;;;;;11.07;7.30;;;19.60;99.90;;;;;;5012578;28;20144;-80
2023/06/11 05:54:07;;;;;;;13.32;7.63;;;19.70;99.90;;;;;;5012644;28;20421;-81
2023/06/11 05:56:53;;;;;;;11.63;7.60;;;19.80;99.90;;;;;;5012139;28;20081;-78
2023/06/11 05:59:39;;;;;;;11.45;7.95;;;19.90;99.90;;;;;;5011690;28;20046;-78
2023/06/11 06:02:25;;;;;;;14.90;8.02;;;20.00;99.90;;;;;;5013555;28;20516;-80
2023/06/11 06:05:12;;;;;;;12.65;7.50;;;20.10;99.90;;;;;;5013357;28;20054;-78
2023/06/11 06:07:58;;;;;;;13.90;7.50;;;20.20;99.90;;;;;;5014040;28;20077;-82
2023/06/11 06:10:44;;;;;;;11.50;7.78;;;20.40;99.90;;;;;;5013115;28;20137;-83
2023/06/11 06:13:30;;;;;;;11.25;7.10;;;20.50;99.90;;;;;;5012555;28;20486;-80
2023/06/11 06:16:16;;;;;;;13.15;7.72;;;20.70;99.90;;;;;;5010628;28;20061;-80
2023/06/11 06:19:02;;;;;;;11.77;6.63;;;20.80;99.90;;;;;;5024991;28;20054;-81
2023/06/11 06:21:48;;;;;;;12.35;7.03;;;20.90;99.90;;;;;;5030878;28;20053;-84
2023/06/11 06:24:34;;;;;;;13.40;7.80;;;20.90;99.90;;;;;;5031820;28;20087;-79
2023/06/11 06:27:21;;;;;;;15.38;8.63;;;21.10;99.90;;;;;;5014093;28;20049;-79
2023/06/11 06:30:07;;;;;;;11.98;7.47;;;21.10;99.90;;;;;;5031846;28;20045;-79
2023/06/11 06:32:54;;;;;;;11.27;6.57;;;21.20;99.90;;;;;;5016498;28;20057;-82
2023/06/11 06:35:40;;;;;;;16.30;7.80;;;21.40;99.90;;;;;;5001750;28;20056;-79
2023/06/11 06:38:27;;;;;;;12.85;7.75;;;21.50;99.90;;;;;;5027080;28;20405;-81
2023/06/11 06:41:13;;;;;;;15.90;7.72;;;21.70;99.90;;;;;;5026293;28;20045;-82
2023/06/11 06:43:59;;;;;;;15.38;7.95;;;21.80;99.90;;;;;;5037346;28;20056;-81
2023/06/11 06:46:45;;;;;;;12.45;7.68;;;21.90;99.90;;;;;;5049544;28;20056;-82
2023/06/11 06:49:32;;;;;;;9.80;7.10;;;21.90;99.90;;;;;;5050984;28;20044;-79
2023/06/11 06:52:19;;;;;;;12.57;7.05;;;22.10;99.90;;;;;;5050514;28;20049;-78
2023/06/11 06:55:05;;;;;;;13.55;7.57;;;22.30;99.90;;;;;;5050598;28;20041;-79
2023/06/11 06:57:51;;;;;;;11.43;7.72;;;22.40;99.90;;;;;;5051955;28;20587;-84
2023/06/11 07:00:38;;;;;;;11.23;7.18;;;22.60;99.90;;;;;;5050571;28;20083;-83
2023/06/11 07:03:24;;;;;;;14.52;7.20;;;22.60;99.90;;;;;;5029567;28;20573;-80
2023/06/11 07:06:10;;;;;;;14.88;8.73;;;22.80;99.90;;;;;;5049878;28;20084;-79
2023/06/11 07:08:56;;;;;;;12.80;6.70;;;22.90;99.90;;;;;;5049853;28;20041;-79
2023/06/11 07:11:42;;;;;;;11.30;6.80;;;23.00;99.90;;;;;;5037830;28;20099;-79
2023/06/11 07:14:28;;;;;;;12.68;7.47;;;23.20;99.90;;;;;;5031586;28;20084;-81
2023/06/11 07:17:14;;;;;;;13.63;8.07;;;23.20;99.90;;;;;;5042893;28;20056;-78
2023/06/11 07:20:00;;;;;;;11.00;6.70;;;23.30;99.90;;;;;;5036424;28;20056;-75
2023/06/11 07:22:47;;;;;;;19.00;8.27;;;23.50;99.90;;;;;;5043189;28;20063;-79
2023/06/11 07:25:33;;;;;;;16.25;7.88;;;23.60;99.90;;;;;;5030861;28;20190;-78
2023/06/11 07:28:22;;;;;;;13.52;7.72;;;23.80;99.90;;;;;;5045681;28;20162;-78
2023/06/11 07:31:12;;;;;;;13.27;7.57;;;23.80;99.90;;;;;;5013453;28;20053;-78
2023/06/11 07:33:58;;;;;;;8.05;6.78;;;24.00;99.90;;;;;;5030436;28;20045;-82
2023/06/11 07:36:44;;;;;;;11.52;6.53;;;24.20;99.90;;;;;;5014879;28;20499;-80
2023/06/11 07:39:30;;;;;;;12.98;7.88;;;24.40;99.90;;;;;;5011415;28;20060;-82
2023/06/11 07:42:16;;;;;;;10.77;7.28;;;24.40;99.90;;;;;;5015182;28;20111;-80
2023/06/11 07:45:03;;;;;;;12.13;7.80;;;24.60;99.90;;;;;;5029900;28;20049;-79
2023/06/11 07:47:49;;;;;;;9.60;6.53;;;24.80;99.90;;;;;;5029766;28;20056;-81
2023/06/11 07:50:35;;;;;;;11.75;6.97;;;24.90;99.90;;;;;;5030039;28;20053;-80
2023/06/11 07:53:21;;;;;;;19.75;7.07;;;25.10;99.60;;;;;;5030181;28;20055;-81
2023/06/11 07:56:07;;;;;;;11.13;6.32;;;25.30;99.60;;;;;;5011990;28;20519;-81
2023/06/11 07:58:54;;;;;;;13.48;7.80;;;25.50;99.50;;;;;;5030012;28;20111;-80
2023/06/11 08:01:41;;;;;;;13.35;7.20;;;25.60;99.00;;;;;;5030233;28;20539;-80
2023/06/11 08:04:27;;;;;;;8.50;6.60;;;25.80;98.60;;;;;;5011809;28;20060;-80
2023/06/11 08:07:13;;;;;;;11.07;6.78;;;26.00;98.50;;;;;;5029697;28;20491;-81
2023/06/11 08:09:59;;;;;;;11.48;7.28;;;26.10;98.10;;;;;;4984933;28;20409;-80
2023/06/11 08:12:45;;;;;;;11.85;8.02;;;26.20;97.70;;;;;;5012230;28;20267;-80
2023/06/11 08:15:32;;;;;;;8.60;6.50;;;26.30;97.30;;;;;;5029775;28;20041;-80
2023/06/11 08:18:18;;;;;;;15.43;8.30;;;26.40;97.10;;;;;;5011746;28;20056;-80
2023/06/11 08:21:05;;;;;;;8.82;6.40;;;26.40;96.60;;;;;;5030572;28;20226;-80
2023/06/11 08:23:51;;;;;;;9.98;7.30;;;26.70;96.70;;;;;;5030306;28;20049;-80
2023/06/11 08:26:37;;;;;;;9.35;6.57;;;26.90;96.50;;;;;;5030733;28;20046;-81
2023/06/11 08:29:23;;;;;;;14.60;6.55;;;27.00;96.20;;;;;;5029813;28;20124;-81
2023/06/11 08:32:09;;;;;;;10.32;7.45;;;27.10;95.90;;;;;;5012156;28;20433;-81
2023/06/11 08:34:55;;;;;;;11.32;7.47;;;27.20;95.20;;;;;;5014863;28;20045;-81
2023/06/11 08:37:42;;;;;;;13.82;7.10;;;27.40;95.00;;;;;;5012376;28;20140;-80
2023/06/11 08:40:29;;;;;;;10.38;6.93;;;27.40;95.10;;;;;;5028556;28;20041;-80
2023/06/11 08:43:15;;;;;;;14.77;8.10;;;27.50;94.80;;;;;;4999836;28;20485;-79
2023/06/11 08:46:01;;;;;;;13.90;7.43;;;27.50;94.50;;;;;;5033408;28;20049;-79
2023/06/11 08:49:03;;;;;;;10.63;6.60;;;27.70;94.90;;;;;;5033376;28;20057;-80
2023/06/11 08:51:50;;;;;;;10.70;6.80;;;27.90;94.70;;;;;;5015547;28;20053;-80
2023/06/11 08:54:36;;;;;;;13.68;7.72;;;28.00;94.20;;;;;;5033224;28;20567;-80
2023/06/11 08:57:23;;;;;;;10.35;6.93;;;28.10;94.20;;;;;;5033337;28;20049;-80
2023/06/11 09:00:10;;;;;;;14.32;7.38;;;28.30;93.90;;;;;;5018476;28;20592;-80
2023/06/11 09:02:56;;;;;;;12.82;7.32;;;28.50;93.90;;;;;;5032919;28;20045;-80
2023/06/11 09:05:43;;;;;;;13.27;6.63;;;28.70;93.30;;;;;;5032967;28;20050;-77
2023/06/11 09:08:29;;;;;;;12.05;6.90;;;28.80;92.90;;;;;;5018902;28;20207;-79
2023/06/11 09:11:15;;;;;;;11.40;6.97;;;28.90;92.80;;;;;;5016903;28;20057;-79
2023/06/11 09:14:03;;;;;;;8.18;5.78;;;29.00;92.40;;;;;;5026598;28;20057;-76
2023/06/11 09:16:49;;;;;;;10.63;7.05;;;29.30;92.60;;;;;;5036745;28;20053;-79
2023/06/11 09:19:37;;;;;;;12.60;7.25;;;29.30;92.00;;;;;;5032446;28;20056;-83
2023/06/11 09:22:27;;;;;;;11.15;6.90;;;29.50;91.90;;;;;;5032429;28;20401;-81
2023/06/11 09:25:17;;;;;;;14.07;7.22;;;29.60;91.60;;;;;;5016713;28;20396;-77
2023/06/11 09:28:06;;;;;;;12.75;7.28;;;29.80;91.50;;;;;;5043851;28;20535;-76
2023/06/11 09:30:54;;;;;;;13.07;6.97;;;29.90;91.50;;;;;;5051366;28;20040;-76
2023/06/11 09:33:40;;;;;;;8.43;6.90;;;29.90;90.70;;;;;;5052030;28;20057;-74
2023/06/11 09:36:26;;;;;;;9.68;7.47;;;30.00;90.50;;;;;;5035095;28;20818;-78
2023/06/11 09:39:13;;;;;;;11.05;5.97;;;30.20;90.20;;;;;;5052229;28;20404;-76
2023/06/11 09:41:59;;;;;;;13.18;7.40;;;30.30;90.10;;;;;;5052165;28;20135;-78
2023/06/11 09:44:45;;;;;;;13.30;6.43;;;30.40;89.80;;;;;;5052419;28;20040;-76
2023/06/11 09:47:31;;;;;;;10.32;6.18;;;30.50;89.30;;;;;;5027575;28;20045;-77
2023/06/11 09:50:18;;;;;;;10.90;6.45;;;30.60;89.60;;;;;;5023568;28;20041;-78
2023/06/11 09:53:05;;;;;;;8.32;5.85;;;30.80;88.50;;;;;;5034003;28;20092;-78
2023/06/11 09:55:51;;;;;;;8.20;5.80;;;30.90;88.80;;;;;;5020531;28;20048;-77
2023/06/11 09:58:39;;;;;;;10.32;6.50;;;31.10;87.90;;;;;;5051020;28;20088;-74
2023/06/11 10:01:26;;;;;;;11.27;6.55;;;31.10;85.40;;;;;;5007301;28;20041;-76
2023/06/11 10:04:12;;;;;;;9.95;5.82;;;31.30;86.30;;;;;;5036748;28;20063;-75
2023/06/11 10:06:58;;;;;;;11.95;6.20;;;31.40;85.70;;;;;;5051803;28;20163;-77
2023/06/11 10:09:48;;;;;;;10.65;6.50;;;31.60;85.20;;;;;;5051621;28;20099;-77
2023/06/11 10:12:34;;;;;;;13.45;6.72;;;31.60;84.50;;;;;;5033607;28;20052;-76
2023/06/11 10:15:24;;;;;;;11.25;6.13;;;31.80;84.80;;;;;;5020246;28;20128;-76
2023/06/11 10:18:14;;;;;;;9.27;5.97;;;32.00;83.90;;;;;;5050134;28;20131;-77
2023/06/11 10:21:01;;;;;;;10.80;6.25;;;32.20;83.50;;;;;;5044048;28;20052;-77
2023/06/11 10:23:53;;;;;;;8.68;5.50;;;32.30;84.20;;;;;;5050916;28;20513;-77
2023/06/11 10:26:39;;;;;;;9.98;6.03;;;32.40;81.40;;;;;;5036476;28;20045;-78
2023/06/11 10:29:26;;;;;;;6.97;5.60;;;32.60;81.10;;;;;;5050054;28;20048;-78
2023/06/11 10:32:22;;;;;;;9.10;5.63;;;32.60;80.30;;;;;;5051111;28;20053;-78
2023/06/11 10:35:20;;;;;;;10.32;5.70;;;32.60;80.40;;;;;;5051495;28;20037;-79
2023/06/11 10:38:10;;;;;;;8.90;5.63;;;32.80;80.10;;;;;;5033333;28;20067;-77
2023/06/11 10:41:05;;;;;;;7.93;5.38;;;33.00;80.50;;;;;;5051021;28;20079;-80
2023/06/11 10:43:51;;;;;;;7.57;5.25;;;33.10;78.90;;;;;;5050765;28;20041;-75
2023/06/11 10:46:52;;;;;;;10.00;5.25;;;33.40;78.80;;;;;;5050674;28;20044;-77
2023/06/11 10:49:38;;;;;;;8.98;5.80;;;33.50;78.70;;;;;;5033433;28;20056;-79
2023/06/11 10:52:24;;;;;;;9.43;6.50;;;33.60;76.60;;;;;;5034342;28;20075;-77
2023/06/11 10:55:12;;;;;;;17.85;5.82;;;33.60;77.10;;;;;;5050280;28;20056;-81
2023/06/11 10:58:00;;;;;;;7.55;4.85;;;33.70;76.80;;;;;;5049841;28;20063;-75
2023/06/11 11:00:46;;;;;;;12.00;5.65;;;33.50;75.30;;;;;;5052683;28;20262;-80
2023/06/11 11:03:33;;;;;;;11.05;5.47;;;33.70;74.80;;;;;;5033531;28;20049;-82
2023/06/11 11:06:26;;;;;;;9.68;6.30;;;34.10;74.80;;;;;;5051153;28;20053;-78
2023/06/11 11:09:19;;;;;;;12.70;6.13;;;34.20;74.40;;;;;;5032381;28;20048;-81
2023/06/11 11:12:06;;;;;;;15.15;5.38;;;34.30;73.20;;;;;;5032592;28;20048;-82
2023/06/11 11:14:52;;;;;;;8.98;5.88;;;34.20;71.90;;;;;;5026787;28;20409;-83
2023/06/11 11:17:40;;;;;;;12.95;5.60;;;34.40;73.00;;;;;;5017340;28;20068;-82
2023/06/11 11:20:26;;;;;;;9.52;5.18;;;34.70;71.00;;;;;;5039995;28;20057;-84
2023/06/11 11:23:12;;;;;;;8.57;5.13;;;34.90;70.30;;;;;;5034767;28;20076;-83
2023/06/11 11:25:58;;;;;;;8.07;5.25;;;34.70;70.00;;;;;;5050641;28;20381;-86
2023/06/11 11:28:47;;;;;;;8.93;5.38;;;35.10;70.20;;;;;;5018891;28;20096;-77
2023/06/11 11:31:34;;;;;;;7.18;4.82;;;35.00;68.90;;;;;;5031186;28;20512;-81
2023/06/11 11:34:22;;;;;;;9.40;4.72;;;35.20;68.10;;;;;;5034053;28;20056;-81
2023/06/11 11:37:08;;;;;;;8.13;4.47;;;35.20;67.40;;;;;;5018134;28;20424;-81
2023/06/11 11:39:55;;;;;;;8.38;5.28;;;35.30;66.20;;;;;;5008600;28;20048;-80
2023/06/11 11:42:48;;;;;;;7.75;5.30;;;35.40;65.80;;;;;;5038846;28;20061;-81
2023/06/11 11:45:36;;;;;;;8.50;4.85;;;35.30;65.20;;;;;;5022447;28;20456;-81
2023/06/11 11:48:25;;;;;;;7.40;4.93;;;35.40;65.30;;;;;;5011786;28;20053;-81
2023/06/11 11:51:13;;;;;;;8.35;4.97;;;35.20;65.40;;;;;;5030540;28;20068;-82
2023/06/11 11:53:59;;;;;;;10.90;5.18;;;35.50;64.50;;;;;;5030119;28;20761;-81
2023/06/11 11:56:45;;;;;;;8.60;5.13;;;35.60;63.70;;;;;;5029753;28;20512;-78
2023/06/11 11:59:37;;;;;;;8.73;4.88;;;35.70;64.00;;;;;;5015347;28;20057;-81
2023/06/11 12:02:27;;;;;;;7.30;4.18;;;36.10;63.60;;;;;;5012291;28;20074;-80
2023/06/11 12:05:14;;;;;;;9.35;5.18;;;36.30;63.30;;;;;;5029567;28;20405;-82
2023/06/11 12:08:00;;;;;;;7.22;4.47;;;36.50;62.20;;;;;;5013912;28;20096;-80
2023/06/11 12:10:49;;;;;;;9.13;4.00;;;36.30;60.00;;;;;;5023487;28;20480;-83
2023/06/11 12:13:35;;;;;;;7.22;4.90;;;36.30;60.10;;;;;;5038996;28;20041;-83
2023/06/11 12:16:22;;;;;;;5.78;3.97;;;36.30;59.80;;;;;;5026186;28;20053;-83
2023/06/11 12:19:08;;;;;;;8.13;4.63;;;36.70;60.00;;;;;;5035227;28;20083;-83
2023/06/11 12:21:57;;;;;;;7.63;4.70;;;37.00;59.20;;;;;;5035270;28;20045;-81
2023/06/11 12:24:43;;;;;;;7.53;4.43;;;37.00;57.70;;;;;;5040314;28;20045;-81
2023/06/11 12:27:30;;;;;;;10.48;4.78;;;37.10;56.80;;;;;;5039697;28;20052;-80
2023/06/11 12:30:16;;;;;;;10.40;4.43;;;36.80;57.00;;;;;;5037262;28;20052;-80
2023/06/11 12:33:02;;;;;;;8.63;4.40;;;37.00;56.10;;;;;;5038464;28;20458;-81
2023/06/11 12:35:48;;;;;;;10.02;4.13;;;36.90;57.00;;;;;;5023218;28;20044;-81
2023/06/11 12:38:35;;;;;;;7.30;4.22;;;36.60;54.20;;;;;;5039781;28;20119;-83
2023/06/11 12:41:21;;;;;;;8.82;4.20;;;36.80;53.40;;;;;;5022231;28;20146;-82
2023/06/11 12:44:07;;;;;;;6.50;3.97;;;36.70;54.00;;;;;;5039947;28;20041;-82
2023/06/11 12:46:53;;;;;;;6.68;4.28;;;36.50;54.10;;;;;;5032281;28;20053;-85
2023/06/11 12:49:39;;;;;;;6.65;3.88;;;36.60;55.40;;;;;;5031737;28;20326;-82
2023/06/11 12:52:25;;;;;;;6.10;3.97;;;37.20;54.50;;;;;;5049410;28;20823;-81
2023/06/11 12:55:12;;;;;;;9.90;4.28;;;37.40;52.30;;;;;;5048716;28;20049;-81
2023/06/11 12:57:58;;;;;;;8.70;4.05;;;37.30;52.10;;;;;;5034716;28;20046;-82
2023/06/11 13:00:44;;;;;;;6.90;4.70;;;37.90;51.80;;;;;;5028872;28;20089;-84
2023/06/11 13:03:31;;;;;;;6.78;3.70;;;38.00;51.50;;;;;;5028513;28;20409;-80
2023/06/11 13:06:17;;;;;;;6.68;3.45;;;38.40;51.30;;;;;;5028419;28;20552;-80
2023/06/11 13:09:03;;;;;;;7.30;3.78;;;38.50;51.40;;;;;;5029391;28;20073;-80
2023/06/11 13:11:49;;;;;;;6.18;4.40;;;38.70;49.80;;;;;;5028130;28;20045;-81
2023/06/11 13:14:35;;;;;;;7.25;4.32;;;38.30;49.50;;;;;;5027835;28;20144;-84
2023/06/11 13:17:21;;;;;;;5.97;3.95;;;38.00;48.10;;;;;;5028049;28;20049;-82
2023/06/11 13:20:08;;;;;;;8.30;4.20;;;38.30;50.50;;;;;;5031253;28;20127;-79
2023/06/11 13:22:54;;;;;;;5.85;3.83;;;38.50;48.50;;;;;;5039516;28;20060;-81
2023/06/11 13:25:40;;;;;;;7.20;4.80;;;38.40;49.00;;;;;;5037809;28;20038;-82
2023/06/11 13:28:27;;;;;;;5.82;4.65;;;38.80;49.30;;;;;;5026195;28;20053;-83
2023/06/11 13:31:13;;;;;;;5.95;3.97;;;39.20;47.60;;;;;;5034954;28;20515;-81
2023/06/11 13:33:59;;;;;;;12.65;4.68;;;39.40;47.50;;;;;;5014580;28;20061;-83
2023/06/11 13:36:45;;;;;;;9.93;4.57;;;39.00;46.30;;;;;;5031818;28;20405;-81
2023/06/11 13:39:32;;;;;;;9.80;4.50;;;38.60;46.70;;;;;;5018000;28;20049;-83
2023/06/11 13:42:18;;;;;;;6.25;4.13;;;38.80;48.00;;;;;;5031972;28;20052;-82
2023/06/11 13:45:05;;;;;;;7.60;4.60;;;39.00;47.90;;;;;;5031439;28;20110;-82
2023/06/11 13:47:51;;;;;;;16.38;4.80;;;39.80;46.50;;;;;;5031227;28;20414;-80
2023/06/11 13:50:39;;;;;;;10.68;4.50;;;39.40;46.20;;;;;;5013403;28;20556;-83
2023/06/11 13:53:26;;;;;;;8.02;4.05;;;39.20;45.90;;;;;;5013719;28;20091;-82
2023/06/11 13:56:12;;;;;;;9.35;4.90;;;39.20;46.60;;;;;;5032076;28;20099;-80
2023/06/11 13:58:58;;;;;;;8.48;4.15;;;39.20;44.80;;;;;;5030776;28;20140;-78
2023/06/11 14:01:44;;;;;;;6.50;4.00;;;39.30;45.50;;;;;;5017086;28;20050;-80
2023/06/11 14:04:30;;;;;;;10.48;4.45;;;39.30;44.70;;;;;;5030552;28;20436;-80
2023/06/11 14:07:16;;;;;;;9.38;4.43;;;39.40;44.70;;;;;;5030152;28;20088;-81
2023/06/11 14:10:04;;;;;;;9.32;4.28;;;39.30;45.60;;;;;;5029673;28;20050;-79
2023/06/11 14:12:51;;;;;;;5.55;3.95;;;38.90;44.90;;;;;;5029829;28;20045;-79
2023/06/11 14:15:37;;;;;;;8.90;4.70;;;38.30;44.50;;;;;;5031670;28;20140;-81
2023/06/11 14:18:23;;;;;;;8.98;4.45;;;38.00;44.30;;;;;;5036330;28;20046;-77
2023/06/11 14:21:09;;;;;;;13.65;4.78;;;38.40;46.10;;;;;;5045623;28;20049;-78
2023/06/11 14:23:55;;;;;;;13.80;5.90;;;37.80;44.90;;;;;;5050188;28;20053;-79